Strona główna
METAR-TAF:

METAR-TAF

Lotnisko :

Port lotniczy Niamey

Niamey, Niger

Szerokość geograficzna: 13-29N, Długość geograficzna: 002-10E, wysokość: 223 m

Aktualna obserwacja pogody

Raport powstał 41 minut temu, godzina 11:00 UTC
Wiatr 4 kt od zachodnio-południowy zachód, zmienny między południowo-południowy wschód i zachód
Temperatura 31°C
Wilgotność 49%
Ciśnienie 1013 hPa
Widzialność 10 km lub więcej
Mało chmury na wysokości 1600 ft
Rozproszone chmury na wysokości 3000 ft, Cumulonimbus.

METAR: DRRN 181100Z 24004KT 160V270 9999 FEW016 SCT030CB 31/19 Q1013 BECMG 10030KT 2000 BLDU TSRA SQ

czas: 12:41 (11:41 UTC)

Prognoza

Raport powstał 6 godziny i 41 minut temu, godzina 05:00 UTC
Prognoza ważna od 18 godzina 06 UTC do 19 godzina 12 UTC
Wiatr 12 kt od zachodnio-południowy zachód
Widzialność 10 km lub więcej
Mało chmury na wysokości 2000 ft

TAF: DRRN 180500Z 1806/1912 24012KT 9999 FEW020

Obserwacja i prognoza pogody dla ponad 4000 lotnisk (raport METAR i TAF).

Dostępne stacje oznaczono żółtymi i czerwonymi punktami na mapie.

Najedź kursorem aby zobaczyć nazwę stacji.

Kliknij aby zobaczyć obserwacje i prognozy pogody.

Aby zmienić mapę: kliknij na zielony przycisk z czarnym krzyżykiem, aby powiększyć; na zielony przycisk z myślnikiem, aby pomniejszyć; na zielone strzałki, aby przejść do map sąsiednich.


METAR-TAF: